createdAt,value
2022-11-02T00:00:03.405Z,99721.09
2022-11-02T00:00:13.339Z,99721.48
2022-11-02T00:00:23.396Z,99716.17
2022-11-02T00:00:33.449Z,99709.27
2022-11-02T00:00:43.355Z,99709.88
2022-11-02T00:00:53.312Z,99709.64
2022-11-02T00:01:03.412Z,99703.40
2022-11-02T00:01:13.444Z,99713.19
2022-11-02T00:01:23.429Z,99719.09
2022-11-02T00:01:33.381Z,99710.77
2022-11-02T00:01:43.455Z,99717.61
2022-11-02T00:01:53.431Z,99712.53
2022-11-02T00:02:03.493Z,99715.45
2022-11-02T00:02:13.351Z,99716.78
2022-11-02T00:02:23.406Z,99713.62
2022-11-02T00:02:33.476Z,99712.20
2022-11-02T00:02:43.428Z,99706.06
2022-11-02T00:02:53.504Z,99713.95
2022-11-02T00:03:03.797Z,99707.82
2022-11-02T00:03:13.457Z,99711.53
2022-11-02T00:03:23.341Z,99707.98
2022-11-02T00:03:33.427Z,99705.95
2022-11-02T00:03:43.369Z,99707.88
2022-11-02T00:03:53.348Z,99701.81
2022-11-02T00:04:03.399Z,99702.84
2022-11-02T00:04:13.384Z,99706.06
2022-11-02T00:04:23.351Z,99707.78
2022-11-02T00:04:33.413Z,99704.17
2022-11-02T00:04:43.431Z,99709.77
2022-11-02T00:04:53.413Z,99705.96
2022-11-02T00:05:03.304Z,99713.03
2022-11-02T00:05:13.433Z,99698.53
2022-11-02T00:05:23.382Z,99701.19
2022-11-02T00:05:33.341Z,99702.08
2022-11-02T00:05:43.400Z,99698.93
2022-11-02T00:05:53.314Z,99705.00
2022-11-02T00:06:03.333Z,99699.00
2022-11-02T00:06:13.406Z,99706.33
2022-11-02T00:06:23.420Z,99703.08
2022-11-02T00:06:33.355Z,99696.21
2022-11-02T00:06:43.349Z,99697.84
2022-11-02T00:06:53.452Z,99701.81
2022-11-02T00:07:03.362Z,99701.69
2022-11-02T00:07:13.321Z,99702.91
2022-11-02T00:07:23.398Z,99698.77
2022-11-02T00:07:33.375Z,99701.82
2022-11-02T00:07:43.393Z,99705.50
2022-11-02T00:07:53.419Z,99695.28
2022-11-02T00:08:03.315Z,99697.55
2022-11-02T00:08:13.407Z,99700.48
2022-11-02T00:08:23.303Z,99699.70
2022-11-02T00:08:33.424Z,99710.81
2022-11-02T00:08:43.364Z,99716.12
2022-11-02T00:08:53.425Z,99707.06
2022-11-02T00:09:03.319Z,99702.19
2022-11-02T00:09:13.351Z,99696.02
2022-11-02T00:09:23.315Z,99698.01
2022-11-02T00:09:33.432Z,99683.84
2022-11-02T00:09:43.437Z,99690.14
2022-11-02T00:09:53.387Z,99698.94
2022-11-02T00:10:03.392Z,99707.16
2022-11-02T00:10:13.430Z,99702.02
2022-11-02T00:10:23.432Z,99699.44
2022-11-02T00:10:33.358Z,99690.55
2022-11-02T00:10:43.399Z,99693.56
2022-11-02T00:10:53.345Z,99705.31
2022-11-02T00:11:03.437Z,99711.61
2022-11-02T00:11:13.319Z,99697.84
2022-11-02T00:11:23.383Z,99717.02
2022-11-02T00:11:33.341Z,99708.39
2022-11-02T00:11:43.380Z,99708.30
2022-11-02T00:11:53.328Z,99702.66
2022-11-02T00:12:03.321Z,99706.63
2022-11-02T00:12:13.327Z,99702.69
2022-11-02T00:12:23.423Z,99699.50
2022-11-02T00:12:33.303Z,99713.80
2022-11-02T00:12:43.331Z,99710.72
2022-11-02T00:12:53.390Z,99711.22
2022-11-02T00:13:03.782Z,99715.30
2022-11-02T00:13:13.374Z,99700.50
2022-11-02T00:13:23.307Z,99715.30
2022-11-02T00:13:33.422Z,99712.28
2022-11-02T00:13:43.413Z,99703.36
2022-11-02T00:13:53.339Z,99712.94
2022-11-02T00:14:03.372Z,99711.16
2022-11-02T00:14:13.325Z,99715.03
2022-11-02T00:14:23.321Z,99700.67
2022-11-02T00:14:33.312Z,99705.08
2022-11-02T00:14:43.438Z,99714.53
2022-11-02T00:14:53.413Z,99700.83
2022-11-02T00:15:03.356Z,99705.74
2022-11-02T00:15:13.358Z,99708.50
2022-11-02T00:15:23.356Z,99723.98
2022-11-02T00:15:33.410Z,99707.17
2022-11-02T00:15:43.433Z,99699.02
2022-11-02T00:15:53.358Z,99707.50
2022-11-02T00:16:03.411Z,99714.70
2022-11-02T00:16:13.314Z,99705.31
2022-11-02T00:16:23.378Z,99714.38
2022-11-02T00:16:33.417Z,99711.28
2022-11-02T00:16:43.346Z,99704.75
2022-11-02T00:16:53.371Z,99704.41
2022-11-02T00:17:03.435Z,99714.44
2022-11-02T00:17:13.438Z,99704.85
2022-11-02T00:17:23.345Z,99713.31
2022-11-02T00:17:33.397Z,99706.08
2022-11-02T00:17:43.305Z,99708.97
2022-11-02T00:17:53.379Z,99706.67
2022-11-02T00:18:13.371Z,99708.17
2022-11-02T00:18:23.425Z,99703.33
2022-11-02T00:18:33.346Z,99703.86
2022-11-02T00:18:43.305Z,99708.63
2022-11-02T00:18:53.333Z,99706.98
2022-11-02T00:19:03.333Z,99702.33
2022-11-02T00:19:13.374Z,99703.26
2022-11-02T00:19:23.336Z,99706.58
2022-11-02T00:19:33.433Z,99721.00
2022-11-02T00:19:43.398Z,99709.39
2022-11-02T00:19:53.447Z,99705.19
2022-11-02T00:20:03.329Z,99708.17
2022-11-02T00:20:13.417Z,99707.84
2022-11-02T00:20:23.356Z,99708.17
2022-11-02T00:20:33.413Z,99714.94
2022-11-02T00:20:43.302Z,99727.25
2022-11-02T00:20:53.328Z,99717.20
2022-11-02T00:21:03.450Z,99712.16
2022-11-02T00:21:13.407Z,99714.64
2022-11-02T00:21:23.441Z,99723.44
2022-11-02T00:21:33.402Z,99712.78
2022-11-02T00:21:43.381Z,99715.02
2022-11-02T00:21:53.408Z,99724.12
2022-11-02T00:22:03.348Z,99724.30
2022-11-02T00:22:13.392Z,99719.22
2022-11-02T00:22:23.407Z,99721.91
2022-11-02T00:22:33.385Z,99720.05
2022-11-02T00:22:43.429Z,99723.14
2022-11-02T00:22:53.422Z,99721.58
2022-11-02T00:23:03.816Z,99722.20
2022-11-02T00:23:13.326Z,99729.61
2022-11-02T00:23:23.306Z,99722.81
2022-11-02T00:23:33.357Z,99721.25
2022-11-02T00:23:43.404Z,99721.14
2022-11-02T00:23:53.391Z,99724.20
2022-11-02T00:24:03.345Z,99726.22
2022-11-02T00:24:13.318Z,99731.03
2022-11-02T00:24:23.346Z,99723.73
2022-11-02T00:24:33.433Z,99731.99
2022-11-02T00:24:43.389Z,99724.20
2022-11-02T00:24:53.413Z,99726.85
2022-11-02T00:25:03.307Z,99719.33
2022-11-02T00:25:13.445Z,99727.18
2022-11-02T00:25:23.367Z,99724.56
2022-11-02T00:25:33.413Z,99724.06
2022-11-02T00:25:43.363Z,99730.20
2022-11-02T00:25:53.406Z,99734.58
2022-11-02T00:26:03.472Z,99723.73
2022-11-02T00:26:13.413Z,99733.58
2022-11-02T00:26:23.319Z,99744.42
2022-11-02T00:26:33.421Z,99726.69
2022-11-02T00:26:43.352Z,99723.37
2022-11-02T00:26:53.437Z,99728.61
2022-11-02T00:27:03.373Z,99733.16
2022-11-02T00:27:13.335Z,99727.72
2022-11-02T00:27:23.315Z,99733.48
2022-11-02T00:27:33.328Z,99732.16
2022-11-02T00:27:43.434Z,99728.67
2022-11-02T00:27:53.324Z,99731.99
2022-11-02T00:28:03.404Z,99727.84
2022-11-02T00:28:13.326Z,99729.17
2022-11-02T00:28:23.305Z,99731.86
2022-11-02T00:28:33.394Z,99725.73
2022-11-02T00:28:43.422Z,99731.66
2022-11-02T00:28:53.327Z,99730.33
2022-11-02T00:29:03.339Z,99729.44
2022-11-02T00:29:13.384Z,99725.73
2022-11-02T00:29:23.331Z,99730.66
2022-11-02T00:29:34.132Z,99730.87
2022-11-02T00:29:43.349Z,99728.44
2022-11-02T00:29:53.308Z,99726.55
2022-11-02T00:30:03.358Z,99727.22
2022-11-02T00:30:13.391Z,99728.38
2022-11-02T00:30:23.346Z,99735.67
2022-11-02T00:30:33.380Z,99732.19
2022-11-02T00:30:43.377Z,99731.92
2022-11-02T00:30:53.328Z,99730.50
2022-11-02T00:31:03.330Z,99728.67
2022-11-02T00:31:13.366Z,99734.15
2022-11-02T00:31:23.367Z,99729.20
2022-11-02T00:31:33.370Z,99735.34
2022-11-02T00:31:43.408Z,99742.44
2022-11-02T00:31:53.416Z,99723.70
2022-11-02T00:32:03.313Z,99722.64
2022-11-02T00:32:13.394Z,99720.09
2022-11-02T00:32:23.414Z,99727.45
2022-11-02T00:32:33.433Z,99728.61
2022-11-02T00:32:43.438Z,99732.36
2022-11-02T00:32:53.386Z,99735.84
2022-11-02T00:33:03.622Z,99727.28
2022-11-02T00:33:13.417Z,99730.93
2022-11-02T00:33:23.342Z,99732.92
2022-11-02T00:33:33.354Z,99729.44
2022-11-02T00:33:43.354Z,99724.20
2022-11-02T00:33:53.457Z,99722.14
2022-11-02T00:34:03.334Z,99724.80
2022-11-02T00:34:13.408Z,99720.88
2022-11-02T00:34:23.399Z,99723.30
2022-11-02T00:34:33.373Z,99728.64
2022-11-02T00:34:43.408Z,99727.78
2022-11-02T00:34:53.409Z,99728.88
2022-11-02T00:35:03.382Z,99725.33
2022-11-02T00:35:13.440Z,99726.22
2022-11-02T00:35:23.381Z,99725.06
2022-11-02T00:35:33.306Z,99727.81
2022-11-02T00:35:43.444Z,99724.73
2022-11-02T00:35:53.429Z,99724.89
2022-11-02T00:36:03.320Z,99722.91
2022-11-02T00:36:13.384Z,99728.05
2022-11-02T00:36:23.363Z,99723.84
2022-11-02T00:36:33.398Z,99718.92
2022-11-02T00:36:43.401Z,99749.83
2022-11-02T00:36:55.532Z,99732.42
2022-11-02T00:37:03.322Z,99721.48
2022-11-02T00:37:13.417Z,99726.33
2022-11-02T00:37:23.422Z,99727.22
2022-11-02T00:37:43.363Z,99724.89
2022-11-02T00:37:53.357Z,99724.73
2022-11-02T00:38:03.704Z,99724.23
2022-11-02T00:38:13.359Z,99728.64
2022-11-02T00:38:23.344Z,99720.98
2022-11-02T00:38:33.321Z,99726.66
2022-11-02T00:38:43.352Z,99721.25
2022-11-02T00:38:53.376Z,99716.84
2022-11-02T00:39:03.315Z,99738.39
2022-11-02T00:39:13.351Z,99718.83
2022-11-02T00:39:23.376Z,99720.84
2022-11-02T00:39:33.398Z,99726.55
2022-11-02T00:39:43.348Z,99722.91
2022-11-02T00:39:53.314Z,99723.80
2022-11-02T00:40:03.311Z,99725.72
2022-11-02T00:40:13.313Z,99722.50
2022-11-02T00:40:23.403Z,99721.18
2022-11-02T00:40:33.423Z,99724.06
2022-11-02T00:40:43.413Z,99725.23
2022-11-02T00:40:53.419Z,99723.13
2022-11-02T00:41:03.399Z,99730.30
2022-11-02T00:41:13.429Z,99723.13
2022-11-02T00:41:23.428Z,99720.58
2022-11-02T00:41:33.306Z,99716.94
2022-11-02T00:41:43.306Z,99719.19
2022-11-02T00:41:53.439Z,99721.41
2022-11-02T00:42:03.304Z,99719.75
2022-11-02T00:42:13.331Z,99716.94
2022-11-02T00:42:23.446Z,99714.71
2022-11-02T00:42:33.383Z,99718.03
2022-11-02T00:42:43.390Z,99718.53
2022-11-02T00:42:53.315Z,99714.19
2022-11-02T00:43:03.304Z,99720.35
2022-11-02T00:43:13.325Z,99714.88
2022-11-02T00:43:23.373Z,99721.34
2022-11-02T00:43:33.390Z,99717.36
2022-11-02T00:43:43.322Z,99720.48
2022-11-02T00:43:53.342Z,99714.84
2022-11-02T00:44:03.388Z,99711.69
2022-11-02T00:44:13.370Z,99713.62
2022-11-02T00:44:23.360Z,99713.02
2022-11-02T00:44:33.386Z,99711.69
2022-11-02T00:44:43.336Z,99714.84
2022-11-02T00:44:53.326Z,99713.95
2022-11-02T00:45:03.336Z,99719.66
2022-11-02T00:45:13.383Z,99715.38
2022-11-02T00:45:23.425Z,99719.19
2022-11-02T00:45:33.433Z,99720.19
2022-11-02T00:45:43.382Z,99718.75
2022-11-02T00:45:53.339Z,99723.06
2022-11-02T00:46:03.417Z,99716.87
2022-11-02T00:46:13.313Z,99724.39
2022-11-02T00:46:23.419Z,99724.55
2022-11-02T00:46:33.319Z,99724.89
2022-11-02T00:46:43.432Z,99722.17
2022-11-02T00:46:53.413Z,99723.80
2022-11-02T00:47:03.334Z,99712.52
2022-11-02T00:47:13.343Z,99720.14
2022-11-02T00:47:23.347Z,99713.84
2022-11-02T00:47:33.426Z,99729.92
2022-11-02T00:47:43.389Z,99716.70
2022-11-02T00:47:53.345Z,99723.23
2022-11-02T00:48:03.741Z,99715.77
2022-11-02T00:48:13.351Z,99735.06
2022-11-02T00:48:23.427Z,99717.86
2022-11-02T00:48:33.343Z,99721.67
2022-11-02T00:48:43.397Z,99722.07
2022-11-02T00:48:53.435Z,99718.66
2022-11-02T00:49:03.345Z,99713.39
2022-11-02T00:49:13.429Z,99714.38
2022-11-02T00:49:23.344Z,99716.00
2022-11-02T00:49:33.369Z,99715.94
2022-11-02T00:49:43.414Z,99719.25
2022-11-02T00:49:53.371Z,99721.84
2022-11-02T00:50:03.371Z,99719.48
2022-11-02T00:50:13.411Z,99725.66
2022-11-02T00:50:23.412Z,99726.12
2022-11-02T00:50:33.429Z,99720.68
2022-11-02T00:50:43.374Z,99722.00
2022-11-02T00:50:53.315Z,99728.77
2022-11-02T00:51:03.363Z,99723.89
2022-11-02T00:51:13.432Z,99723.66
2022-11-02T00:51:23.384Z,99729.53
2022-11-02T00:51:33.319Z,99724.72
2022-11-02T00:51:43.313Z,99725.66
2022-11-02T00:51:53.331Z,99730.53
2022-11-02T00:52:03.303Z,99723.56
2022-11-02T00:52:13.424Z,99725.98
2022-11-02T00:52:23.320Z,99726.44
2022-11-02T00:52:33.309Z,99726.15
2022-11-02T00:52:43.418Z,99719.58
2022-11-02T00:52:53.391Z,99718.48
2022-11-02T00:53:03.425Z,99722.23
2022-11-02T00:53:13.399Z,99720.80
2022-11-02T00:53:23.303Z,99718.81
2022-11-02T00:53:33.330Z,99715.44
2022-11-02T00:53:43.314Z,99720.47
2022-11-02T00:53:53.405Z,99723.66
2022-11-02T00:54:03.417Z,99715.34
2022-11-02T00:54:13.346Z,99720.58
2022-11-02T00:54:25.965Z,99721.41
2022-11-02T00:54:33.418Z,99721.08
2022-11-02T00:54:43.399Z,99721.50
2022-11-02T00:54:53.310Z,99721.57
2022-11-02T00:55:03.312Z,99722.96
2022-11-02T00:55:13.355Z,99723.83
2022-11-02T00:55:23.316Z,99718.85
2022-11-02T00:55:33.420Z,99715.77
2022-11-02T00:55:43.386Z,99718.02
2022-11-02T00:55:53.429Z,99719.41
2022-11-02T00:56:03.348Z,99718.52
2022-11-02T00:56:13.335Z,99719.58
2022-11-02T00:56:23.333Z,99719.74
2022-11-02T00:56:33.377Z,99716.33
2022-11-02T00:56:43.313Z,99723.29
2022-11-02T00:56:53.415Z,99725.61
2022-11-02T00:57:03.383Z,99725.88
2022-11-02T00:57:13.417Z,99721.67
2022-11-02T00:57:23.321Z,99719.41
2022-11-02T00:57:33.311Z,99734.73
2022-11-02T00:57:43.411Z,99719.41
2022-11-02T00:57:53.465Z,99717.48
2022-11-02T00:58:03.611Z,99720.51
2022-11-02T00:58:13.420Z,99739.30
2022-11-02T00:58:23.368Z,99730.84
2022-11-02T00:58:33.334Z,99726.14
2022-11-02T00:58:43.427Z,99721.50
2022-11-02T00:58:53.417Z,99717.42
2022-11-02T00:59:03.344Z,99729.95
2022-11-02T00:59:13.428Z,99734.56
2022-11-02T00:59:23.399Z,99724.15
2022-11-02T00:59:33.316Z,99727.14
2022-11-02T00:59:43.437Z,99723.39
2022-11-02T00:59:53.412Z,99726.44
2022-11-02T01:00:03.414Z,99725.28
2022-11-02T01:00:13.374Z,99723.16
2022-11-02T01:00:23.383Z,99724.32
2022-11-02T01:00:33.409Z,99729.45
2022-11-02T01:00:43.403Z,99721.17
2022-11-02T01:00:53.316Z,99720.57
2022-11-02T01:01:03.361Z,99716.70
2022-11-02T01:01:13.622Z,99718.91
2022-11-02T01:01:23.537Z,99723.45
2022-11-02T01:01:33.425Z,99735.59
2022-11-02T01:01:43.511Z,99723.29
2022-11-02T01:01:53.514Z,99716.09
2022-11-02T01:02:03.520Z,99716.77
2022-11-02T01:02:13.591Z,99718.52
2022-11-02T01:02:23.491Z,99716.27
2022-11-02T01:02:33.647Z,99717.03
2022-11-02T01:02:43.525Z,99724.45
2022-11-02T01:02:53.308Z,99723.23
2022-11-02T01:03:03.394Z,99718.59
2022-11-02T01:03:13.384Z,99715.94
2022-11-02T01:03:23.375Z,99716.44
2022-11-02T01:03:33.397Z,99713.39
2022-11-02T01:03:43.399Z,99725.65
2022-11-02T01:03:53.364Z,99720.31
2022-11-02T01:04:03.414Z,99721.58
2022-11-02T01:04:13.307Z,99718.19
2022-11-02T01:04:23.390Z,99718.86
2022-11-02T01:04:33.419Z,99721.47
2022-11-02T01:04:43.366Z,99720.48
2022-11-02T01:04:53.378Z,99720.91
2022-11-02T01:05:03.320Z,99711.86
2022-11-02T01:05:13.472Z,99711.56
2022-11-02T01:05:23.332Z,99721.73
2022-11-02T01:05:33.404Z,99722.47
2022-11-02T01:05:43.394Z,99716.53
2022-11-02T01:05:53.387Z,99720.19
2022-11-02T01:06:03.336Z,99714.78
2022-11-02T01:06:13.347Z,99724.95
2022-11-02T01:06:23.362Z,99724.39
2022-11-02T01:06:33.371Z,99719.92
2022-11-02T01:06:43.395Z,99713.78
2022-11-02T01:06:53.323Z,99720.58
2022-11-02T01:07:03.396Z,99721.14
2022-11-02T01:07:13.403Z,99727.77
2022-11-02T01:07:23.314Z,99729.27
2022-11-02T01:07:33.391Z,99727.54
2022-11-02T01:07:43.323Z,99719.16
2022-11-02T01:07:53.421Z,99723.83
2022-11-02T01:08:03.840Z,99722.34
2022-11-02T01:08:13.342Z,99720.52
2022-11-02T01:08:23.437Z,99726.28
2022-11-02T01:08:33.424Z,99717.86
2022-11-02T01:08:43.377Z,99723.50
2022-11-02T01:08:53.343Z,99722.89
2022-11-02T01:09:03.326Z,99719.19
2022-11-02T01:09:13.366Z,99715.54
2022-11-02T01:09:23.313Z,99711.56
2022-11-02T01:09:33.372Z,99711.73
2022-11-02T01:09:43.319Z,99711.62
2022-11-02T01:09:53.324Z,99717.48
2022-11-02T01:10:03.434Z,99718.32
2022-11-02T01:10:13.377Z,99714.70
2022-11-02T01:10:23.346Z,99714.61
2022-11-02T01:10:33.357Z,99711.79
2022-11-02T01:10:47.170Z,99713.52
2022-11-02T01:10:53.322Z,99716.77
2022-11-02T01:11:03.372Z,99718.69
2022-11-02T01:11:13.329Z,99718.85
2022-11-02T01:11:23.406Z,99720.02
2022-11-02T01:11:33.307Z,99713.55
2022-11-02T01:11:43.308Z,99715.17
2022-11-02T01:11:53.423Z,99711.73
2022-11-02T01:12:03.420Z,99720.84
2022-11-02T01:12:13.314Z,99719.58
2022-11-02T01:12:23.357Z,99725.81
2022-11-02T01:12:33.385Z,99718.09
2022-11-02T01:12:43.361Z,99712.95
2022-11-02T01:12:53.442Z,99721.14
2022-11-02T01:13:03.440Z,99719.81
2022-11-02T01:13:13.432Z,99717.03
2022-11-02T01:13:23.389Z,99709.70
2022-11-02T01:13:33.410Z,99723.62
2022-11-02T01:13:43.334Z,99714.02
2022-11-02T01:13:53.316Z,99718.48
2022-11-02T01:14:03.313Z,99714.51
2022-11-02T01:14:13.376Z,99716.83
2022-11-02T01:14:23.358Z,99721.41
2022-11-02T01:14:33.323Z,99720.24
2022-11-02T01:14:43.306Z,99717.42
2022-11-02T01:14:53.359Z,99723.98
2022-11-02T01:15:03.422Z,99725.98
2022-11-02T01:15:13.426Z,99720.58
2022-11-02T01:15:23.355Z,99727.27
2022-11-02T01:15:33.405Z,99724.39
2022-11-02T01:15:43.399Z,99721.07
2022-11-02T01:15:53.315Z,99723.83
2022-11-02T01:16:03.379Z,99729.59
2022-11-02T01:16:13.318Z,99724.38
2022-11-02T01:16:23.305Z,99725.15
2022-11-02T01:16:33.453Z,99727.27
2022-11-02T01:16:43.384Z,99722.73
2022-11-02T01:16:53.378Z,99720.91
2022-11-02T01:17:03.307Z,99724.16
2022-11-02T01:17:13.323Z,99724.12
2022-11-02T01:17:23.426Z,99728.03
2022-11-02T01:17:33.414Z,99719.02
2022-11-02T01:17:43.371Z,99720.73
2022-11-02T01:17:53.331Z,99721.50
2022-11-02T01:18:03.708Z,99723.99
2022-11-02T01:18:13.367Z,99718.32
2022-11-02T01:18:23.390Z,99723.39
2022-11-02T01:18:33.409Z,99722.96
2022-11-02T01:18:43.384Z,99718.48
2022-11-02T01:18:53.335Z,99712.95
2022-11-02T01:19:03.356Z,99716.92
2022-11-02T01:19:13.399Z,99718.09
2022-11-02T01:19:23.321Z,99719.91
2022-11-02T01:19:33.385Z,99719.19
2022-11-02T01:19:43.314Z,99724.55
2022-11-02T01:19:53.405Z,99721.73
2022-11-02T01:20:03.314Z,99717.16
2022-11-02T01:20:13.342Z,99719.41
2022-11-02T01:20:23.337Z,99720.91
2022-11-02T01:20:33.409Z,99722.39
2022-11-02T01:20:43.314Z,99721.90
2022-11-02T01:20:53.304Z,99712.45
2022-11-02T01:21:03.440Z,99714.70
2022-11-02T01:21:13.422Z,99716.33
2022-11-02T01:21:23.424Z,99714.17
2022-11-02T01:21:33.413Z,99715.50
2022-11-02T01:21:43.417Z,99718.81
2022-11-02T01:21:53.427Z,99716.16
2022-11-02T01:22:03.363Z,99721.13
2022-11-02T01:22:13.446Z,99717.42
2022-11-02T01:22:23.328Z,99721.13
2022-11-02T01:22:33.396Z,99715.17
2022-11-02T01:22:43.316Z,99723.62
2022-11-02T01:22:53.315Z,99715.59
2022-11-02T01:23:03.413Z,99713.77
2022-11-02T01:23:13.323Z,99716.92
2022-11-02T01:23:23.394Z,99715.99
2022-11-02T01:23:33.306Z,99718.15
2022-11-02T01:23:43.346Z,99715.70
2022-11-02T01:23:53.381Z,99716.53
2022-11-02T01:24:03.352Z,99715.70
2022-11-02T01:24:13.340Z,99709.23
2022-11-02T01:24:23.361Z,99714.17
2022-11-02T01:24:33.367Z,99714.34
2022-11-02T01:24:43.405Z,99717.02
2022-11-02T01:24:53.342Z,99718.81
2022-11-02T01:25:03.382Z,99716.53
2022-11-02T01:25:13.328Z,99713.17
2022-11-02T01:25:23.316Z,99720.50
2022-11-02T01:25:33.433Z,99719.41
2022-11-02T01:25:43.326Z,99719.08
2022-11-02T01:25:53.310Z,99716.20
2022-11-02T01:26:03.304Z,99719.73
2022-11-02T01:26:13.345Z,99714.88
2022-11-02T01:26:23.321Z,99714.27
2022-11-02T01:26:33.342Z,99713.77
2022-11-02T01:26:43.378Z,99714.83
2022-11-02T01:26:53.367Z,99721.96
2022-11-02T01:27:03.400Z,99719.84
2022-11-02T01:27:13.428Z,99719.84
2022-11-02T01:27:23.319Z,99713.61
2022-11-02T01:27:33.423Z,99713.67
2022-11-02T01:27:43.304Z,99720.80
2022-11-02T01:27:53.345Z,99721.96
2022-11-02T01:28:03.622Z,99718.64
2022-11-02T01:28:13.375Z,99712.78
2022-11-02T01:28:23.346Z,99711.28
2022-11-02T01:28:33.407Z,99715.77
2022-11-02T01:28:43.396Z,99714.59
2022-11-02T01:28:53.324Z,99708.47
2022-11-02T01:29:03.347Z,99714.27
2022-11-02T01:29:13.322Z,99719.08
2022-11-02T01:29:23.421Z,99725.47
2022-11-02T01:29:33.410Z,99711.12
2022-11-02T01:29:43.427Z,99705.38
2022-11-02T01:29:53.382Z,99708.53
2022-11-02T01:30:03.377Z,99710.02
2022-11-02T01:30:13.370Z,99710.69
2022-11-02T01:30:23.405Z,99713.88
2022-11-02T01:30:33.342Z,99711.88
2022-11-02T01:30:43.440Z,99708.30
2022-11-02T01:30:53.330Z,99708.36
2022-11-02T01:31:03.328Z,99713.44
2022-11-02T01:31:13.399Z,99711.38
2022-11-02T01:31:23.424Z,99710.85
2022-11-02T01:31:33.373Z,99708.73
2022-11-02T01:31:43.328Z,99709.89
2022-11-02T01:31:53.396Z,99714.86
2022-11-02T01:32:03.327Z,99715.59
2022-11-02T01:32:13.414Z,99710.28
2022-11-02T01:32:23.311Z,99717.84
2022-11-02T01:32:33.353Z,99717.52
2022-11-02T01:32:43.322Z,99711.18
2022-11-02T01:32:53.446Z,99706.58
2022-11-02T01:33:03.442Z,99708.19
2022-11-02T01:33:13.345Z,99702.89
2022-11-02T01:33:23.366Z,99712.17
2022-11-02T01:33:33.356Z,99701.00
2022-11-02T01:33:43.358Z,99706.58
2022-11-02T01:33:53.416Z,99705.97
2022-11-02T01:34:03.392Z,99706.57
2022-11-02T01:34:13.440Z,99715.75
2022-11-02T01:34:23.411Z,99706.38
2022-11-02T01:34:33.358Z,99715.48
2022-11-02T01:34:43.350Z,99708.79
2022-11-02T01:34:53.338Z,99705.24
2022-11-02T01:35:03.348Z,99703.98
2022-11-02T01:35:13.352Z,99706.08
2022-11-02T01:35:23.409Z,99706.14
2022-11-02T01:35:33.307Z,99705.14
2022-11-02T01:35:43.356Z,99704.74
2022-11-02T01:35:53.372Z,99706.47
2022-11-02T01:36:03.365Z,99704.81
2022-11-02T01:36:13.402Z,99708.52
2022-11-02T01:36:33.322Z,99712.11
2022-11-02T01:36:43.348Z,99712.93
2022-11-02T01:36:53.414Z,99704.31
2022-11-02T01:37:03.344Z,99713.27
2022-11-02T01:37:13.335Z,99709.72
2022-11-02T01:37:23.364Z,99710.70
2022-11-02T01:37:33.408Z,99707.06
2022-11-02T01:37:43.402Z,99710.88
2022-11-02T01:37:53.414Z,99710.11
2022-11-02T01:38:03.728Z,99713.27
2022-11-02T01:38:13.348Z,99706.86
2022-11-02T01:38:23.403Z,99708.19
2022-11-02T01:38:33.419Z,99706.62
2022-11-02T01:38:43.370Z,99713.42
2022-11-02T01:38:53.311Z,99710.11
2022-11-02T01:39:03.382Z,99719.12
2022-11-02T01:39:13.329Z,99712.20
2022-11-02T01:39:23.355Z,99709.78
2022-11-02T01:39:33.311Z,99708.18
2022-11-02T01:39:43.356Z,99709.84
2022-11-02T01:39:53.317Z,99705.62
2022-11-02T01:40:03.373Z,99707.02
2022-11-02T01:40:13.409Z,99710.60
2022-11-02T01:40:23.428Z,99712.36
2022-11-02T01:40:33.365Z,99713.19
2022-11-02T01:40:43.390Z,99715.01
2022-11-02T01:40:53.388Z,99700.39
2022-11-02T01:41:03.426Z,99702.14
2022-11-02T01:41:13.382Z,99704.37
2022-11-02T01:41:23.313Z,99709.20
2022-11-02T01:41:33.433Z,99704.73
2022-11-02T01:41:43.439Z,99706.62
2022-11-02T01:41:53.335Z,99709.05
2022-11-02T01:42:03.321Z,99704.03
2022-11-02T01:42:13.395Z,99706.29
2022-11-02T01:42:23.410Z,99704.03
2022-11-02T01:42:33.431Z,99704.03
2022-11-02T01:42:43.368Z,99697.44
2022-11-02T01:42:53.409Z,99697.61
2022-11-02T01:43:03.408Z,99703.90
2022-11-02T01:43:13.346Z,99696.61
2022-11-02T01:43:23.380Z,99703.04
2022-11-02T01:43:33.313Z,99702.74
2022-11-02T01:43:43.319Z,99697.41
2022-11-02T01:43:53.418Z,99708.67
2022-11-02T01:44:03.405Z,99702.91
2022-11-02T01:44:13.387Z,99701.72
2022-11-02T01:44:23.354Z,99697.50
2022-11-02T01:44:33.391Z,99697.17
2022-11-02T01:44:43.369Z,99697.60
2022-11-02T01:44:53.323Z,99698.99
2022-11-02T01:45:03.397Z,99696.44
2022-11-02T01:45:13.382Z,99698.23
2022-11-02T01:45:23.405Z,99698.98
2022-11-02T01:45:33.417Z,99703.20
2022-11-02T01:45:43.326Z,99692.62
2022-11-02T01:45:53.358Z,99696.17
2022-11-02T01:46:03.339Z,99698.48
2022-11-02T01:46:13.378Z,99705.72
2022-11-02T01:46:23.318Z,99703.53
2022-11-02T01:46:33.408Z,99698.33
2022-11-02T01:46:43.427Z,99694.75
2022-11-02T01:46:53.370Z,99694.68
2022-11-02T01:47:03.348Z,99689.61
2022-11-02T01:47:13.451Z,99689.98
2022-11-02T01:47:23.440Z,99689.77
2022-11-02T01:47:33.438Z,99700.74
2022-11-02T01:47:43.389Z,99691.09
2022-11-02T01:47:53.417Z,99689.81
2022-11-02T01:48:03.793Z,99690.61
2022-11-02T01:48:13.343Z,99693.42
2022-11-02T01:48:23.351Z,99692.30
2022-11-02T01:48:33.401Z,99682.75
2022-11-02T01:48:43.405Z,99694.94
2022-11-02T01:48:53.336Z,99695.01
2022-11-02T01:49:03.342Z,99693.12
2022-11-02T01:49:13.319Z,99689.27
2022-11-02T01:49:23.342Z,99691.59
2022-11-02T01:49:33.411Z,99687.45
2022-11-02T01:49:43.345Z,99690.43
2022-11-02T01:49:53.384Z,99693.67
2022-11-02T01:50:03.427Z,99703.39
2022-11-02T01:50:13.398Z,99692.91
2022-11-02T01:50:23.399Z,99688.81
2022-11-02T01:50:33.380Z,99689.11
2022-11-02T01:50:43.430Z,99697.33
2022-11-02T01:50:53.369Z,99697.59
2022-11-02T01:51:03.348Z,99688.05
2022-11-02T01:51:13.378Z,99689.44
2022-11-02T01:51:23.341Z,99687.38
2022-11-02T01:51:33.433Z,99686.06
2022-11-02T01:51:43.321Z,99690.36
2022-11-02T01:51:53.334Z,99692.41
2022-11-02T01:52:03.383Z,99696.66
2022-11-02T01:52:13.375Z,99691.52
2022-11-02T01:52:23.444Z,99693.52
2022-11-02T01:52:33.368Z,99693.41
2022-11-02T01:52:43.356Z,99689.77
2022-11-02T01:52:53.426Z,99691.69
2022-11-02T01:53:03.342Z,99694.34
2022-11-02T01:53:13.401Z,99686.48
2022-11-02T01:53:23.338Z,99690.30
2022-11-02T01:53:33.345Z,99693.27
2022-11-02T01:53:43.332Z,99694.93
2022-11-02T01:53:53.380Z,99699.30
2022-11-02T01:54:03.446Z,99694.73
2022-11-02T01:54:13.337Z,99689.20
2022-11-02T01:54:23.341Z,99698.14
2022-11-02T01:54:33.395Z,99704.44
2022-11-02T01:54:43.354Z,99697.91
2022-11-02T01:54:53.430Z,99700.55
2022-11-02T01:55:03.400Z,99698.30
2022-11-02T01:55:13.363Z,99699.30
2022-11-02T01:55:23.338Z,99704.76
2022-11-02T01:55:33.352Z,99701.81
2022-11-02T01:55:43.433Z,99695.25
2022-11-02T01:55:53.382Z,99697.08
2022-11-02T01:56:03.348Z,99696.58
2022-11-02T01:56:13.358Z,99694.39
2022-11-02T01:56:33.415Z,99694.42
2022-11-02T01:56:43.429Z,99701.12
2022-11-02T01:56:53.312Z,99699.86
2022-11-02T01:57:03.314Z,99701.55
2022-11-02T01:57:13.439Z,99695.84
2022-11-02T01:57:23.381Z,99689.36
2022-11-02T01:57:33.315Z,99700.88
2022-11-02T01:57:43.409Z,99698.99
2022-11-02T01:57:53.363Z,99699.12
2022-11-02T01:58:03.828Z,99698.23